Time;durP1;ratioP1;P1;durP2;ratioP2;P2;SDS_P1;SDS_P2;PMS_P1;PMS_P2;Temp;Humidity;BMP_temperature;BMP_pressure;BME280_temperature;BME280_humidity;BME280_pressure;Samples;Min_cycle;Max_cycle;Signal;HPM_P1;HPM_P2
2023/01/28 00:01:26;;;;;;;;;;;4.40;83.00;;;;;;9174290;19;19925;-61
2023/01/28 00:04:31;;;;;;;;;;;4.40;83.00;;;;;;9176095;19;19922;-65
2023/01/28 00:07:37;;;;;;;;;;;4.30;83.00;;;;;;9175411;19;20268;-63
2023/01/28 00:10:43;;;;;;;;;;;4.30;83.00;;;;;;9173812;19;19930;-64
2023/01/28 00:13:46;;;;;;;;;;;4.30;83.00;;;;;;9175745;19;19915;-63
2023/01/28 00:16:52;;;;;;;;;;;4.30;83.00;;;;;;9175579;19;19918;-62
2023/01/28 00:19:56;;;;;;;;;;;4.30;83.00;;;;;;9176318;19;19922;-62
2023/01/28 00:23:03;;;;;;;;;;;4.30;83.00;;;;;;9181538;19;19933;-65
2023/01/28 00:26:08;;;;;;;;;;;4.30;83.00;;;;;;9183390;19;19926;-64
2023/01/28 00:29:14;;;;;;;;;;;4.30;83.00;;;;;;9183805;19;19926;-65
2023/01/28 00:32:20;;;;;;;;;;;4.30;83.00;;;;;;9182807;19;19914;-61
2023/01/28 00:35:26;;;;;;;;;;;4.30;83.00;;;;;;9183261;19;20329;-66
2023/01/28 00:38:31;;;;;;;;;;;4.30;82.90;;;;;;9181398;19;19915;-61
2023/01/28 00:41:37;;;;;;;;;;;4.30;82.90;;;;;;9182073;19;20268;-61
2023/01/28 00:44:40;;;;;;;;;;;4.30;82.90;;;;;;9181275;19;19929;-63
2023/01/28 00:47:47;;;;;;;;;;;4.30;82.80;;;;;;9183233;19;19922;-64
2023/01/28 00:50:50;;;;;;;;;;;4.30;82.80;;;;;;9182606;19;19926;-63
2023/01/28 00:53:58;;;;;;;;;;;4.30;82.80;;;;;;9180546;19;20342;-62
2023/01/28 00:57:03;;;;;;;;;;;4.20;82.80;;;;;;9183727;19;19923;-63
2023/01/28 01:00:09;;;;;;;;;;;4.20;82.80;;;;;;9178335;19;20363;-62
2023/01/28 01:03:13;;;;;;;;;;;4.20;82.80;;;;;;9179477;19;19919;-63
2023/01/28 01:06:19;;;;;;;;;;;4.10;82.80;;;;;;9182708;19;19919;-62
2023/01/28 01:09:24;;;;;;;;;;;4.10;82.80;;;;;;9182654;19;19926;-62
2023/01/28 01:12:30;;;;;;;;;;;4.10;82.80;;;;;;9182596;19;19967;-62
2023/01/28 01:15:34;;;;;;;;;;;4.00;82.80;;;;;;9182363;19;19919;-64
2023/01/28 01:18:42;;;;;;;;;;;4.00;82.80;;;;;;9182362;19;20256;-64
2023/01/28 01:21:49;;;;;;;;;;;4.00;82.70;;;;;;9179129;19;19927;-62
2023/01/28 01:24:57;;;;;;;;;;;3.90;82.80;;;;;;9181630;19;19927;-63
2023/01/28 01:28:00;;;;;;;;;;;3.90;82.80;;;;;;9182066;19;20264;-63
2023/01/28 01:31:07;;;;;;;;;;;3.90;82.80;;;;;;9181599;19;19922;-62
2023/01/28 01:34:11;;;;;;;;;;;3.80;82.70;;;;;;9180834;19;19955;-62
2023/01/28 01:37:19;;;;;;;;;;;3.80;82.70;;;;;;9181301;19;19924;-65
2023/01/28 01:40:24;;;;;;;;;;;3.80;82.80;;;;;;9182077;19;20373;-62
2023/01/28 01:43:47;;;;;;;;;;;3.80;82.70;;;;;;9181162;19;19922;-65
2023/01/28 01:46:52;;;;;;;;;;;3.70;82.60;;;;;;9180413;19;19931;-61
2023/01/28 01:49:59;;;;;;;;;;;3.70;82.70;;;;;;9180908;19;19919;-63
2023/01/28 01:53:05;;;;;;;;;;;3.70;82.70;;;;;;9181078;19;20358;-66
2023/01/28 01:56:15;;;;;;;;;;;3.70;82.70;;;;;;9180409;19;19934;-64
2023/01/28 01:59:21;;;;;;;;;;;3.70;82.70;;;;;;9174155;19;19915;-62
2023/01/28 02:02:26;;;;;;;;;;;3.70;82.60;;;;;;9177902;19;19934;-62
2023/01/28 02:05:30;;;;;;;;;;;3.60;82.60;;;;;;9181036;19;19930;-60
2023/01/28 02:08:40;;;;;;;;;;;3.60;82.60;;;;;;9180406;19;19923;-63
2023/01/28 02:11:45;;;;;;;;;;;3.60;82.60;;;;;;9177103;19;19941;-62
2023/01/28 02:14:54;;;;;;;;;;;3.60;82.50;;;;;;9178347;19;19923;-61
2023/01/28 02:17:58;;;;;;;;;;;3.60;82.50;;;;;;9179888;19;19922;-60
2023/01/28 02:21:26;;;;;;;;;;;3.50;82.50;;;;;;9178678;19;19923;-63
2023/01/28 02:24:52;;;;;;;;;;;3.50;82.50;;;;;;9179784;19;19923;-64
2023/01/28 02:28:09;;;;;;;;;;;3.50;82.50;;;;;;9179880;19;20261;-62
2023/01/28 02:31:16;;;;;;;;;;;3.50;82.50;;;;;;9177356;19;19943;-64
2023/01/28 02:34:27;;;;;;;;;;;3.50;82.50;;;;;;9179841;19;20251;-64
2023/01/28 02:37:35;;;;;;;;;;;3.50;82.40;;;;;;9178330;19;19914;-65
2023/01/28 02:44:02;;;;;;;;;;;3.50;82.40;;;;;;9172672;19;19938;-61
2023/01/28 02:50:32;;;;;;;;;;;3.50;82.40;;;;;;9178943;19;20284;-63
2023/01/28 02:53:42;;;;;;;;;;;3.50;82.40;;;;;;9176923;19;20690;-62
2023/01/28 02:56:49;;;;;;;;;;;3.50;82.40;;;;;;9176807;19;19925;-61
2023/01/28 03:00:02;;;;;;;;;;;3.50;82.40;;;;;;9174000;19;20135;-63
2023/01/28 03:03:11;;;;;;;;;;;3.50;82.40;;;;;;9173514;19;19919;-63
2023/01/28 03:06:19;;;;;;;;;;;3.50;82.40;;;;;;9178410;19;19923;-63
2023/01/28 03:09:25;;;;;;;;;;;3.50;82.30;;;;;;9175857;19;20279;-62
2023/01/28 03:39:10;;;;;;;;;;;3.50;82.30;;;;;;9176179;19;19926;-63
2023/01/28 03:42:17;;;;;;;;;;;3.50;82.30;;;;;;9172994;19;19937;-62
2023/01/28 03:45:33;;;;;;;;;;;3.50;82.20;;;;;;9174885;19;19922;-62
2023/01/28 03:48:41;;;;;;;;;;;3.50;82.30;;;;;;9175128;19;19937;-62
2023/01/28 03:51:49;;;;;;;;;;;3.50;82.20;;;;;;9175254;19;19990;-63
2023/01/28 03:54:53;;;;;;;;;;;3.50;82.30;;;;;;9175522;19;19926;-61
2023/01/28 03:57:59;;;;;;;;;;;3.50;82.20;;;;;;9179173;19;19926;-62
2023/01/28 04:01:03;;;;;;;;;;;3.50;82.30;;;;;;9182122;19;19941;-63
2023/01/28 04:04:23;;;;;;;;;;;3.50;82.20;;;;;;9182761;19;19926;-62
2023/01/28 04:07:28;;;;;;;;;;;3.50;82.20;;;;;;9182272;19;20373;-64
2023/01/28 04:10:52;;;;;;;;;;;3.50;82.20;;;;;;9181409;19;19911;-61
2023/01/28 04:14:03;;;;;;;;;;;3.50;82.20;;;;;;9182595;19;19955;-67
2023/01/28 04:17:31;;;;;;;;;;;3.50;82.20;;;;;;9182683;19;19926;-63
2023/01/28 04:20:38;;;;;;;;;;;3.50;82.10;;;;;;9182524;19;19926;-65
2023/01/28 04:23:43;;;;;;;;;;;3.50;82.10;;;;;;9179467;19;20033;-64
2023/01/28 04:26:50;;;;;;;;;;;3.50;82.10;;;;;;9182458;19;19918;-64
2023/01/28 04:29:55;;;;;;;;;;;3.50;82.20;;;;;;9183654;19;19927;-64
2023/01/28 04:33:15;;;;;;;;;;;3.50;82.20;;;;;;9182284;19;20324;-63
2023/01/28 04:36:40;;;;;;;;;;;3.50;82.10;;;;;;9181185;19;19918;-61
2023/01/28 04:40:00;;;;;;;;;;;3.50;82.10;;;;;;9182905;19;19934;-63
2023/01/28 04:43:19;;;;;;;;;;;3.50;82.10;;;;;;9179455;19;19922;-63
2023/01/28 04:46:28;;;;;;;;;;;3.50;82.10;;;;;;9181571;19;19919;-64
2023/01/28 04:49:40;;;;;;;;;;;3.50;82.10;;;;;;9181542;19;19927;-64
2023/01/28 04:53:06;;;;;;;;;;;3.40;82.00;;;;;;9183116;19;20233;-62
2023/01/28 04:56:28;;;;;;;;;;;3.40;82.00;;;;;;9181174;19;20600;-61
2023/01/28 04:59:32;;;;;;;;;;;3.40;82.00;;;;;;9176820;19;19926;-63
2023/01/28 05:02:38;;;;;;;;;;;3.40;82.00;;;;;;9179668;19;19929;-63
2023/01/28 05:05:41;;;;;;;;;;;3.30;82.00;;;;;;9182671;19;19956;-64
2023/01/28 05:08:59;;;;;;;;;;;3.30;82.00;;;;;;9179198;19;19911;-64
2023/01/28 05:12:03;;;;;;;;;;;3.30;82.10;;;;;;9177795;19;19926;-66
2023/01/28 05:15:11;;;;;;;;;;;3.30;82.10;;;;;;9180889;19;19935;-65
2023/01/28 05:18:14;;;;;;;;;;;3.20;82.00;;;;;;9180542;19;19927;-62
2023/01/28 05:21:27;;;;;;;;;;;3.20;82.00;;;;;;9180248;19;19926;-63
2023/01/28 05:24:40;;;;;;;;;;;3.20;82.00;;;;;;9180279;19;19919;-65
2023/01/28 05:27:50;;;;;;;;;;;3.20;82.00;;;;;;9180369;19;20356;-63
2023/01/28 05:30:54;;;;;;;;;;;3.20;82.00;;;;;;9181634;19;19911;-64
2023/01/28 05:34:00;;;;;;;;;;;3.20;82.00;;;;;;9177415;19;19915;-63
2023/01/28 05:37:03;;;;;;;;;;;3.20;82.00;;;;;;9180019;19;19943;-65
2023/01/28 05:40:15;;;;;;;;;;;3.20;82.00;;;;;;9179026;19;19915;-65
2023/01/28 05:43:19;;;;;;;;;;;3.20;82.00;;;;;;9176916;19;19918;-64
2023/01/28 05:46:57;;;;;;;;;;;3.20;81.90;;;;;;9177803;19;19922;-62
2023/01/28 05:50:19;;;;;;;;;;;3.20;81.90;;;;;;9181457;19;19942;-61
2023/01/28 05:53:49;;;;;;;;;;;3.20;81.80;;;;;;9181712;19;20240;-62
2023/01/28 05:56:55;;;;;;;;;;;3.20;81.80;;;;;;9181481;19;20335;-62
2023/01/28 06:00:00;;;;;;;;;;;3.20;81.80;;;;;;9175146;19;19930;-64
2023/01/28 06:03:04;;;;;;;;;;;3.20;81.80;;;;;;9176542;19;19919;-62
2023/01/28 06:06:10;;;;;;;;;;;3.20;81.90;;;;;;9178367;19;19923;-62
2023/01/28 06:09:14;;;;;;;;;;;3.20;81.80;;;;;;9180622;19;19923;-62
2023/01/28 06:12:22;;;;;;;;;;;3.20;81.80;;;;;;9175313;19;19922;-64
2023/01/28 06:15:51;;;;;;;;;;;3.20;81.80;;;;;;9178495;19;19923;-62
2023/01/28 06:19:20;;;;;;;;;;;3.20;81.90;;;;;;9178997;19;20446;-65
2023/01/28 06:22:23;;;;;;;;;;;3.20;81.80;;;;;;9173454;19;20007;-63
2023/01/28 06:25:29;;;;;;;;;;;3.20;81.90;;;;;;9171498;19;19930;-63
2023/01/28 06:28:39;;;;;;;;;;;3.20;81.80;;;;;;9175288;19;19918;-63
2023/01/28 06:31:44;;;;;;;;;;;3.20;81.80;;;;;;9179861;19;19927;-63
2023/01/28 06:34:48;;;;;;;;;;;3.20;81.80;;;;;;9179954;19;19923;-63
2023/01/28 06:37:54;;;;;;;;;;;3.20;81.80;;;;;;9179682;19;19946;-63
2023/01/28 06:40:58;;;;;;;;;;;3.20;81.80;;;;;;9178945;19;19923;-63
2023/01/28 06:44:06;;;;;;;;;;;3.20;81.90;;;;;;9173495;19;19933;-65
2023/01/28 06:47:10;;;;;;;;;;;3.20;81.80;;;;;;9177284;19;19914;-65
2023/01/28 06:50:15;;;;;;;;;;;3.20;81.80;;;;;;9178831;19;19923;-64
2023/01/28 06:53:20;;;;;;;;;;;3.20;81.80;;;;;;9176950;19;19919;-62
2023/01/28 06:56:25;;;;;;;;;;;3.20;81.80;;;;;;9178968;19;19923;-64
2023/01/28 06:59:31;;;;;;;;;;;3.20;81.80;;;;;;9174423;19;19950;-62
2023/01/28 07:02:37;;;;;;;;;;;3.20;81.80;;;;;;9176722;19;19975;-62
2023/01/28 07:05:40;;;;;;;;;;;3.20;81.80;;;;;;9178382;19;19974;-64
2023/01/28 07:08:46;;;;;;;;;;;3.20;81.80;;;;;;9179152;19;19947;-63
2023/01/28 07:11:50;;;;;;;;;;;3.20;81.80;;;;;;9175170;19;19926;-63
2023/01/28 07:14:57;;;;;;;;;;;3.20;81.80;;;;;;9179181;19;19930;-63
2023/01/28 07:18:01;;;;;;;;;;;3.20;81.80;;;;;;9178272;19;19919;-63
2023/01/28 07:21:08;;;;;;;;;;;3.20;81.80;;;;;;9177898;19;19922;-63
2023/01/28 07:24:11;;;;;;;;;;;3.20;81.80;;;;;;9173990;19;19942;-63
2023/01/28 07:27:17;;;;;;;;;;;3.20;81.80;;;;;;9177950;19;19923;-63
2023/01/28 07:30:23;;;;;;;;;;;3.20;81.80;;;;;;9179603;19;19974;-62
2023/01/28 07:33:28;;;;;;;;;;;3.20;81.80;;;;;;9185261;19;19923;-64
2023/01/28 07:36:32;;;;;;;;;;;3.20;81.80;;;;;;9185776;19;19918;-64
2023/01/28 07:39:37;;;;;;;;;;;3.20;81.80;;;;;;9185243;19;19923;-62
2023/01/28 07:42:41;;;;;;;;;;;3.20;81.80;;;;;;9184360;19;19926;-62
2023/01/28 07:45:51;;;;;;;;;;;3.20;81.70;;;;;;9182736;19;19922;-63
2023/01/28 07:48:55;;;;;;;;;;;3.20;81.70;;;;;;9185283;19;19932;-61
2023/01/28 07:52:01;;;;;;;;;;;3.20;81.70;;;;;;9184706;19;19929;-64
2023/01/28 07:55:05;;;;;;;;;;;3.20;81.70;;;;;;9183177;19;20296;-65
2023/01/28 07:58:11;;;;;;;;;;;3.20;81.70;;;;;;9180492;19;19922;-63
2023/01/28 08:01:18;;;;;;;;;;;3.20;81.70;;;;;;9185142;19;19939;-62
2023/01/28 08:04:24;;;;;;;;;;;3.20;81.70;;;;;;9180941;19;19926;-63
2023/01/28 08:07:28;;;;;;;;;;;3.20;81.70;;;;;;9184761;19;19930;-63
2023/01/28 08:10:34;;;;;;;;;;;3.20;81.70;;;;;;9183977;19;19923;-64
2023/01/28 08:13:38;;;;;;;;;;;3.20;81.70;;;;;;9184787;19;19954;-63
2023/01/28 08:16:45;;;;;;;;;;;3.20;81.70;;;;;;9183305;19;19923;-61
2023/01/28 08:19:49;;;;;;;;;;;3.20;81.70;;;;;;9184577;19;19950;-64
2023/01/28 08:22:55;;;;;;;;;;;3.20;81.70;;;;;;9182386;19;19911;-63
2023/01/28 08:25:59;;;;;;;;;;;3.20;81.70;;;;;;9182984;19;19923;-64
2023/01/28 08:29:05;;;;;;;;;;;3.20;81.70;;;;;;9183070;19;19910;-64
2023/01/28 08:32:10;;;;;;;;;;;3.30;81.80;;;;;;9183417;19;19927;-62
2023/01/28 08:35:16;;;;;;;;;;;3.30;81.70;;;;;;9184137;19;19919;-63
2023/01/28 08:38:19;;;;;;;;;;;3.30;81.70;;;;;;9183782;19;19919;-64
2023/01/28 08:41:25;;;;;;;;;;;3.30;81.60;;;;;;9182906;19;19922;-63
2023/01/28 08:44:29;;;;;;;;;;;3.30;81.70;;;;;;9180897;19;19919;-63
2023/01/28 08:47:36;;;;;;;;;;;3.30;81.70;;;;;;9181577;19;20252;-64
2023/01/28 08:50:40;;;;;;;;;;;3.30;81.60;;;;;;9183523;19;19926;-63
2023/01/28 08:53:46;;;;;;;;;;;3.30;81.60;;;;;;9183084;19;19915;-63
2023/01/28 08:56:50;;;;;;;;;;;3.30;81.60;;;;;;9183501;19;20359;-62
2023/01/28 08:59:56;;;;;;;;;;;3.30;81.60;;;;;;9178649;19;19974;-65
2023/01/28 09:03:01;;;;;;;;;;;3.30;82.20;;;;;;9181176;19;19923;-63
2023/01/28 09:06:10;;;;;;;;;;;3.30;81.60;;;;;;9182428;19;19919;-63
2023/01/28 09:09:14;;;;;;;;;;;3.40;81.70;;;;;;9182757;19;20317;-63
2023/01/28 09:12:20;;;;;;;;;;;3.40;81.60;;;;;;9178150;19;19911;-65
2023/01/28 09:15:23;;;;;;;;;;;3.40;81.60;;;;;;9181243;19;21682;-63
2023/01/28 09:18:31;;;;;;;;;;;3.40;81.60;;;;;;9180104;19;19922;-63
2023/01/28 09:21:35;;;;;;;;;;;3.40;81.60;;;;;;9181693;19;19946;-63
2023/01/28 09:24:40;;;;;;;;;;;3.40;81.60;;;;;;9178505;19;19914;-64
2023/01/28 09:27:44;;;;;;;;;;;3.50;81.60;;;;;;9181800;19;19940;-64
2023/01/28 09:30:49;;;;;;;;;;;3.50;81.60;;;;;;9181567;19;19926;-63
2023/01/28 09:33:56;;;;;;;;;;;3.50;82.20;;;;;;9181457;19;20192;-62
2023/01/28 09:37:01;;;;;;;;;;;3.50;81.60;;;;;;9180194;19;19918;-62
2023/01/28 09:40:06;;;;;;;;;;;3.50;81.60;;;;;;9181054;19;20293;-69
2023/01/28 09:43:26;;;;;;;;;;;3.60;81.60;;;;;;9178453;19;19949;-64
2023/01/28 09:46:32;;;;;;;;;;;3.60;81.60;;;;;;9180507;19;19922;-65
2023/01/28 09:49:42;;;;;;;;;;;3.60;81.60;;;;;;9181399;19;19918;-66
2023/01/28 09:52:46;;;;;;;;;;;3.70;81.70;;;;;;9180117;19;19919;-64
2023/01/28 09:55:55;;;;;;;;;;;3.60;81.50;;;;;;9181775;19;19919;-66
2023/01/28 09:58:59;;;;;;;;;;;3.70;81.60;;;;;;9177185;19;20291;-64
2023/01/28 10:02:14;;;;;;;;;;;3.70;81.50;;;;;;9180902;19;19923;-65
2023/01/28 10:05:23;;;;;;;;;;;3.70;81.60;;;;;;9181009;19;20360;-65
2023/01/28 10:08:37;;;;;;;;;;;3.80;81.60;;;;;;9180749;19;19915;-65
2023/01/28 10:11:48;;;;;;;;;;;3.80;81.50;;;;;;9175289;19;20389;-66
2023/01/28 10:15:00;;;;;;;;;;;3.80;81.50;;;;;;9177784;19;20172;-65
2023/01/28 10:18:09;;;;;;;;;;;3.90;81.60;;;;;;9180218;19;19926;-67
2023/01/28 10:21:27;;;;;;;;;;;3.90;81.70;;;;;;9180294;19;20271;-65
2023/01/28 10:24:32;;;;;;;;;;;4.00;81.80;;;;;;9174874;19;20374;-66
2023/01/28 10:27:38;;;;;;;;;;;4.10;81.90;;;;;;9180644;19;20343;-65
2023/01/28 10:30:43;;;;;;;;;;;4.20;81.90;;;;;;9179378;19;19922;-67
2023/01/28 10:33:49;;;;;;;;;;;4.30;81.90;;;;;;9179830;19;19919;-66
2023/01/28 10:36:55;;;;;;;;;;;4.50;81.90;;;;;;9180741;19;20282;-65
2023/01/28 10:40:01;;;;;;;;;;;4.60;81.90;;;;;;9179685;19;19915;-65
2023/01/28 10:43:07;;;;;;;;;;;4.80;81.90;;;;;;9178609;19;19927;-65
2023/01/28 10:46:16;;;;;;;;;;;4.90;81.80;;;;;;9180026;19;19930;-65
2023/01/28 10:49:22;;;;;;;;;;;5.00;81.90;;;;;;9178897;19;19922;-66
2023/01/28 10:52:30;;;;;;;;;;;5.10;81.90;;;;;;9179260;19;20264;-66
2023/01/28 10:55:37;;;;;;;;;;;5.20;81.80;;;;;;9179157;19;19919;-65
2023/01/28 10:58:51;;;;;;;;;;;5.30;81.70;;;;;;9174101;19;20253;-65
2023/01/28 11:01:55;;;;;;;;;;;5.50;81.70;;;;;;9178246;19;19919;-65
2023/01/28 11:05:02;;;;;;;;;;;5.50;81.60;;;;;;9175792;19;19934;-65
2023/01/28 11:08:14;;;;;;;;;;;5.60;81.50;;;;;;9178307;19;19919;-63
2023/01/28 11:11:24;;;;;;;;;;;5.70;81.50;;;;;;9175218;19;19918;-64
2023/01/28 11:14:28;;;;;;;;;;;5.70;81.40;;;;;;9177878;19;19915;-64
2023/01/28 11:17:35;;;;;;;;;;;5.80;81.30;;;;;;9178253;19;19934;-64
2023/01/28 11:20:42;;;;;;;;;;;5.80;81.30;;;;;;9178483;19;19911;-65
2023/01/28 11:23:51;;;;;;;;;;;5.90;81.30;;;;;;9176055;19;19926;-65
2023/01/28 11:26:56;;;;;;;;;;;5.90;81.20;;;;;;9177892;19;20305;-65
2023/01/28 11:30:03;;;;;;;;;;;6.00;81.80;;;;;;9177717;19;19933;-65
2023/01/28 11:33:15;;;;;;;;;;;6.10;81.20;;;;;;9177761;19;19914;-64
2023/01/28 11:36:21;;;;;;;;;;;6.10;81.10;;;;;;9177973;19;20447;-65
2023/01/28 11:39:28;;;;;;;;;;;6.20;81.10;;;;;;9177590;19;20514;-65
2023/01/28 11:42:34;;;;;;;;;;;6.20;81.10;;;;;;9176647;19;19926;-63
2023/01/28 11:45:44;;;;;;;;;;;6.20;81.00;;;;;;9176972;19;19938;-64
2023/01/28 11:48:53;;;;;;;;;;;6.30;81.00;;;;;;9177214;19;19922;-64
2023/01/28 11:51:59;;;;;;;;;;;6.30;80.90;;;;;;9176209;19;19918;-65
2023/01/28 11:55:16;;;;;;;;;;;6.30;80.90;;;;;;9176142;19;19922;-64
2023/01/28 11:58:22;;;;;;;;;;;6.30;80.90;;;;;;9172569;19;20248;-63
2023/01/28 12:01:32;;;;;;;;;;;6.30;80.80;;;;;;9176059;19;19929;-64
2023/01/28 12:04:48;;;;;;;;;;;6.30;80.80;;;;;;9173596;19;20370;-64
2023/01/28 12:07:57;;;;;;;;;;;6.30;80.80;;;;;;9172950;19;19926;-63
2023/01/28 12:11:11;;;;;;;;;;;6.30;80.80;;;;;;9173172;19;19937;-62
2023/01/28 12:14:23;;;;;;;;;;;6.20;80.70;;;;;;9173280;19;20010;-62
2023/01/28 12:17:33;;;;;;;;;;;6.20;80.70;;;;;;9179472;19;20730;-62
2023/01/28 12:20:43;;;;;;;;;;;6.20;80.70;;;;;;9183563;19;19937;-62
2023/01/28 12:23:56;;;;;;;;;;;6.10;80.70;;;;;;9182291;19;19923;-64
2023/01/28 12:27:11;;;;;;;;;;;6.10;80.80;;;;;;9183753;19;19926;-61
2023/01/28 12:30:20;;;;;;;;;;;6.00;80.80;;;;;;9183741;19;19919;-63
2023/01/28 12:33:37;;;;;;;;;;;6.00;80.80;;;;;;9181602;19;20071;-63
2023/01/28 12:36:46;;;;;;;;;;;5.90;80.80;;;;;;9183503;19;19914;-64
2023/01/28 12:40:00;;;;;;;;;;;5.90;80.90;;;;;;9182922;19;19925;-64
2023/01/28 12:43:07;;;;;;;;;;;5.80;80.90;;;;;;9182005;19;19928;-62
2023/01/28 12:46:26;;;;;;;;;;;5.80;80.90;;;;;;9182617;19;19918;-63
2023/01/28 12:49:32;;;;;;;;;;;5.80;81.00;;;;;;9182964;19;19919;-63
2023/01/28 12:52:40;;;;;;;;;;;5.70;80.90;;;;;;9183180;19;19919;-62
2023/01/28 12:55:46;;;;;;;;;;;5.80;81.00;;;;;;9182827;19;19927;-62
2023/01/28 12:58:57;;;;;;;;;;;5.70;81.00;;;;;;9179052;19;19918;-62
2023/01/28 13:02:17;;;;;;;;;;;5.70;81.00;;;;;;9181914;19;19919;-64
2023/01/28 13:05:28;;;;;;;;;;;5.70;81.10;;;;;;9180858;19;19915;-64
2023/01/28 13:08:31;;;;;;;;;;;5.70;81.00;;;;;;9182883;19;19923;-63
2023/01/28 13:11:38;;;;;;;;;;;5.70;81.00;;;;;;9179492;19;20420;-64
2023/01/28 13:14:43;;;;;;;;;;;5.70;81.00;;;;;;9182723;19;20324;-61
2023/01/28 13:17:56;;;;;;;;;;;5.70;81.00;;;;;;9182571;19;20284;-61
2023/01/28 13:21:00;;;;;;;;;;;5.70;81.00;;;;;;9182478;19;19922;-62
2023/01/28 13:24:19;;;;;;;;;;;5.70;81.00;;;;;;9179762;19;19921;-61
2023/01/28 13:27:24;;;;;;;;;;;5.70;81.00;;;;;;9178564;19;20260;-62
2023/01/28 13:30:33;;;;;;;;;;;5.60;81.00;;;;;;9181338;19;19946;-65
2023/01/28 13:33:37;;;;;;;;;;;5.60;80.90;;;;;;9182044;19;19915;-62
2023/01/28 13:36:45;;;;;;;;;;;5.60;80.90;;;;;;9182224;19;20347;-65
2023/01/28 13:39:51;;;;;;;;;;;5.60;81.00;;;;;;9181189;19;20316;-63
2023/01/28 13:43:01;;;;;;;;;;;5.60;81.00;;;;;;9178989;19;19919;-65
2023/01/28 13:46:08;;;;;;;;;;;5.60;80.90;;;;;;9179892;19;19918;-62
2023/01/28 13:49:16;;;;;;;;;;;5.60;81.00;;;;;;9178806;19;20350;-64
2023/01/28 13:52:23;;;;;;;;;;;5.60;81.00;;;;;;9179359;19;19927;-64
2023/01/28 13:55:32;;;;;;;;;;;5.50;81.00;;;;;;9178908;19;19922;-62
2023/01/28 13:59:03;;;;;;;;;;;5.50;81.00;;;;;;9173641;19;19923;-67
2023/01/28 14:02:23;;;;;;;;;;;5.50;81.00;;;;;;9180702;19;19927;-64
2023/01/28 14:05:40;;;;;;;;;;;5.50;80.90;;;;;;9175611;19;19921;-63
2023/01/28 14:09:03;;;;;;;;;;;5.50;80.90;;;;;;9179338;19;19919;-63
2023/01/28 14:12:27;;;;;;;;;;;5.50;81.00;;;;;;9176725;19;19919;-61
2023/01/28 14:16:00;;;;;;;;;;;5.50;81.00;;;;;;9177990;19;19915;-61
2023/01/28 14:19:05;;;;;;;;;;;5.50;81.00;;;;;;9177523;19;19922;-63
2023/01/28 14:22:17;;;;;;;;;;;5.50;80.90;;;;;;9179284;19;19923;-63
2023/01/28 14:25:23;;;;;;;;;;;5.50;80.90;;;;;;9175621;19;19915;-63
2023/01/28 14:28:35;;;;;;;;;;;5.50;80.90;;;;;;9180189;19;19919;-64
2023/01/28 14:31:39;;;;;;;;;;;5.50;80.90;;;;;;9177944;19;19922;-63
2023/01/28 14:34:46;;;;;;;;;;;5.50;80.90;;;;;;9178404;19;19919;-64
2023/01/28 14:37:52;;;;;;;;;;;5.40;80.80;;;;;;9179979;19;20273;-64
2023/01/28 14:40:58;;;;;;;;;;;5.40;80.80;;;;;;9178766;19;19924;-63
2023/01/28 14:44:02;;;;;;;;;;;5.40;80.80;;;;;;9177356;19;19930;-61
2023/01/28 14:47:21;;;;;;;;;;;5.40;80.80;;;;;;9177639;19;19926;-61
2023/01/28 14:50:32;;;;;;;;;;;5.40;80.90;;;;;;9178991;19;19922;-64
2023/01/28 14:53:57;;;;;;;;;;;5.40;81.40;;;;;;9178595;19;19918;-63
2023/01/28 14:57:16;;;;;;;;;;;5.40;80.80;;;;;;9175947;19;19930;-64
2023/01/28 15:00:23;;;;;;;;;;;5.40;80.80;;;;;;9174363;19;19926;-62
2023/01/28 15:03:27;;;;;;;;;;;5.30;80.80;;;;;;9177835;19;19990;-64
2023/01/28 15:06:36;;;;;;;;;;;5.40;81.40;;;;;;9178529;19;19922;-61
2023/01/28 15:09:41;;;;;;;;;;;5.40;80.80;;;;;;9177977;19;19931;-64
2023/01/28 15:12:49;;;;;;;;;;;5.30;80.80;;;;;;9178129;19;19927;-63
2023/01/28 15:15:59;;;;;;;;;;;5.30;80.80;;;;;;9177834;19;20303;-61
2023/01/28 15:19:08;;;;;;;;;;;5.30;80.80;;;;;;9178310;19;19930;-64
2023/01/28 15:22:15;;;;;;;;;;;5.30;80.80;;;;;;9175838;19;19944;-62
2023/01/28 15:25:24;;;;;;;;;;;5.30;80.80;;;;;;9174089;19;20344;-60
2023/01/28 15:28:29;;;;;;;;;;;5.30;80.70;;;;;;9177668;19;20300;-60
2023/01/28 15:31:37;;;;;;;;;;;5.40;80.80;;;;;;9177598;19;19919;-63
2023/01/28 15:34:46;;;;;;;;;;;5.30;80.70;;;;;;9176879;19;19986;-62
2023/01/28 15:37:52;;;;;;;;;;;5.30;80.70;;;;;;9176832;19;20344;-62
2023/01/28 15:40:59;;;;;;;;;;;5.30;80.70;;;;;;9177748;19;19923;-61
2023/01/28 15:44:05;;;;;;;;;;;5.30;80.60;;;;;;9174849;19;19923;-62
2023/01/28 15:47:14;;;;;;;;;;;5.30;80.70;;;;;;9177175;19;19926;-63
2023/01/28 15:50:21;;;;;;;;;;;5.30;80.60;;;;;;9176603;19;20366;-63
2023/01/28 15:53:25;;;;;;;;;;;5.30;80.60;;;;;;9182335;19;19982;-62
2023/01/28 15:56:32;;;;;;;;;;;5.30;81.20;;;;;;9184681;19;19923;-62
2023/01/28 15:59:36;;;;;;;;;;;5.30;80.60;;;;;;9180932;19;19986;-63
2023/01/28 16:02:45;;;;;;;;;;;5.20;81.10;;;;;;9185083;19;19930;-62
2023/01/28 16:05:57;;;;;;;;;;;5.20;80.50;;;;;;9182154;19;19915;-61
2023/01/28 16:09:04;;;;;;;;;;;5.20;80.60;;;;;;9184270;19;19958;-61
2023/01/28 16:12:12;;;;;;;;;;;5.10;80.50;;;;;;9180078;19;19919;-62
2023/01/28 16:15:20;;;;;;;;;;;5.10;80.50;;;;;;9184096;19;19934;-62
2023/01/28 16:18:30;;;;;;;;;;;5.10;80.50;;;;;;9183142;19;20244;-62
2023/01/28 16:21:37;;;;;;;;;;;5.00;80.40;;;;;;9184438;19;20268;-65
2023/01/28 16:24:51;;;;;;;;;;;5.00;80.50;;;;;;9182482;19;19951;-61
2023/01/28 16:27:59;;;;;;;;;;;5.00;80.80;;;;;;9183829;19;20273;-64
2023/01/28 16:31:02;;;;;;;;;;;4.90;80.50;;;;;;9183541;19;19925;-62
2023/01/28 16:34:09;;;;;;;;;;;4.90;80.50;;;;;;9183998;19;19937;-65
2023/01/28 16:37:12;;;;;;;;;;;4.90;80.50;;;;;;9175404;19;20019;-61
2023/01/28 16:40:19;;;;;;;;;;;4.90;80.50;;;;;;9177117;19;19938;-63
2023/01/28 16:43:25;;;;;;;;;;;4.90;80.60;;;;;;9173783;19;19937;-62
2023/01/28 16:46:32;;;;;;;;;;;4.80;80.50;;;;;;9175850;19;19923;-64
2023/01/28 16:49:35;;;;;;;;;;;4.80;80.50;;;;;;9164539;19;20340;-65
2023/01/28 16:52:41;;;;;;;;;;;4.80;80.50;;;;;;9171022;19;19918;-62
2023/01/28 16:55:45;;;;;;;;;;;4.80;80.50;;;;;;9177111;19;19918;-64
2023/01/28 16:58:52;;;;;;;;;;;4.80;80.50;;;;;;9169396;19;19929;-63
2023/01/28 17:01:56;;;;;;;;;;;4.70;80.40;;;;;;9173832;19;19951;-61
2023/01/28 17:05:02;;;;;;;;;;;4.70;80.50;;;;;;9176524;19;19930;-63
2023/01/28 17:08:06;;;;;;;;;;;4.70;80.50;;;;;;9177230;19;19919;-63
2023/01/28 17:11:12;;;;;;;;;;;4.60;80.50;;;;;;9177056;19;20036;-62
2023/01/28 17:14:17;;;;;;;;;;;4.60;80.50;;;;;;9179014;19;19922;-62
2023/01/28 17:17:23;;;;;;;;;;;4.60;80.50;;;;;;9176943;19;19923;-62
2023/01/28 17:20:27;;;;;;;;;;;4.60;80.50;;;;;;9181324;19;19918;-64
2023/01/28 17:23:33;;;;;;;;;;;4.60;80.50;;;;;;9181066;19;20248;-61
2023/01/28 17:26:37;;;;;;;;;;;4.50;80.40;;;;;;9180401;19;19926;-61
2023/01/28 17:29:44;;;;;;;;;;;4.50;80.50;;;;;;9181715;19;20462;-61
2023/01/28 17:32:48;;;;;;;;;;;4.50;80.40;;;;;;9180426;19;19934;-62
2023/01/28 17:35:55;;;;;;;;;;;4.50;80.40;;;;;;9181977;19;19930;-63
2023/01/28 17:39:00;;;;;;;;;;;4.50;80.40;;;;;;9179806;19;19926;-62
2023/01/28 17:42:06;;;;;;;;;;;4.50;80.50;;;;;;9179033;19;19915;-64
2023/01/28 17:45:12;;;;;;;;;;;4.50;80.50;;;;;;9176194;19;19918;-61
2023/01/28 17:48:17;;;;;;;;;;;4.40;80.50;;;;;;9177297;19;19926;-64
2023/01/28 17:51:21;;;;;;;;;;;4.40;80.40;;;;;;9177954;19;19922;-62
2023/01/28 17:54:27;;;;;;;;;;;4.40;80.40;;;;;;9177673;19;20538;-63
2023/01/28 17:57:31;;;;;;;;;;;4.40;80.40;;;;;;9178212;19;19921;-61
2023/01/28 18:00:38;;;;;;;;;;;4.40;80.50;;;;;;9172521;19;20240;-64
2023/01/28 18:03:42;;;;;;;;;;;4.40;80.40;;;;;;9176738;19;19942;-61
2023/01/28 18:06:49;;;;;;;;;;;4.40;80.40;;;;;;9177697;19;19919;-62
2023/01/28 18:09:53;;;;;;;;;;;4.40;80.40;;;;;;9172777;19;19949;-63
2023/01/28 18:13:00;;;;;;;;;;;4.40;80.50;;;;;;9173481;19;19933;-62
2023/01/28 18:16:07;;;;;;;;;;;4.40;80.50;;;;;;9165379;19;19941;-62
2023/01/28 18:19:13;;;;;;;;;;;4.30;80.40;;;;;;9167154;19;19926;-63
2023/01/28 18:22:16;;;;;;;;;;;4.30;80.40;;;;;;9166395;19;19930;-61
2023/01/28 18:25:22;;;;;;;;;;;4.30;80.50;;;;;;9166236;19;19942;-64
2023/01/28 18:28:26;;;;;;;;;;;4.30;80.40;;;;;;9173078;19;19925;-62
2023/01/28 18:31:34;;;;;;;;;;;4.30;80.40;;;;;;9172999;19;19927;-64
2023/01/28 18:34:37;;;;;;;;;;;4.30;80.40;;;;;;9172755;19;19922;-63
2023/01/28 18:37:43;;;;;;;;;;;4.30;80.40;;;;;;9172897;19;19922;-64
2023/01/28 18:40:47;;;;;;;;;;;4.30;80.40;;;;;;9170986;19;19922;-62
2023/01/28 18:43:53;;;;;;;;;;;4.30;80.40;;;;;;9172077;19;20498;-64
2023/01/28 18:46:59;;;;;;;;;;;4.30;80.40;;;;;;9171910;19;20599;-61
2023/01/28 18:50:05;;;;;;;;;;;4.20;80.30;;;;;;9173552;19;19919;-63
2023/01/28 18:53:08;;;;;;;;;;;4.20;80.30;;;;;;9173397;19;19923;-63
2023/01/28 18:56:17;;;;;;;;;;;4.30;80.40;;;;;;9167756;19;22238;-63
2023/01/28 18:59:20;;;;;;;;;;;4.20;80.40;;;;;;9167953;19;20005;-60
2023/01/28 19:02:28;;;;;;;;;;;4.30;80.40;;;;;;9173091;19;19919;-63
2023/01/28 19:05:34;;;;;;;;;;;4.20;80.40;;;;;;9170357;19;19922;-63